createdAt,value
2022-11-08T00:01:11.622Z,97938.81
2022-11-08T00:03:38.097Z,97930.28
2022-11-08T00:06:23.386Z,97932.75
2022-11-08T00:09:08.635Z,97925.75
2022-11-08T00:11:53.876Z,97927.97
2022-11-08T00:14:20.284Z,97923.47
2022-11-08T00:16:46.840Z,97923.88
2022-11-08T00:19:13.331Z,97925.13
2022-11-08T00:21:39.774Z,97926.09
2022-11-08T00:24:06.396Z,97935.72
2022-11-08T00:26:32.861Z,97935.16
2022-11-08T00:29:00.055Z,97932.56
2022-11-08T00:31:26.485Z,97930.94
2022-11-08T00:33:52.966Z,97935.22
2022-11-08T00:36:19.414Z,97939.38
2022-11-08T00:38:45.933Z,97929.69
2022-11-08T00:41:12.572Z,97932.56
2022-11-08T00:43:39.052Z,97928.31
2022-11-08T00:46:05.516Z,97927.06
2022-11-08T00:48:31.964Z,97931.03
2022-11-08T00:51:03.501Z,97934.31
2022-11-08T00:53:29.964Z,97927.25
2022-11-08T00:56:02.178Z,97921.47
2022-11-08T00:58:29.178Z,97924.28
2022-11-08T01:00:56.075Z,97927.31
2022-11-08T01:03:23.890Z,97927.31
2022-11-08T01:05:51.806Z,97927.47
2022-11-08T01:08:19.260Z,97927.19
2022-11-08T01:10:47.530Z,97927.25
2022-11-08T01:13:14.082Z,97922.78
2022-11-08T01:15:41.955Z,97923.78
2022-11-08T01:18:09.813Z,97914.91
2022-11-08T01:20:39.986Z,97920.16
2022-11-08T01:23:06.920Z,97915.16
2022-11-08T01:25:40.773Z,97921.91
2022-11-08T01:28:07.527Z,97912.25
2022-11-08T01:30:37.590Z,97908.97
2022-11-08T01:33:04.589Z,97917.13
2022-11-08T01:35:31.949Z,97908.38
2022-11-08T01:37:58.854Z,97905.81
2022-11-08T01:40:25.942Z,97899.13
2022-11-08T01:42:53.013Z,97900.22
2022-11-08T01:45:38.425Z,97892.75
2022-11-08T01:48:04.920Z,97893.44
2022-11-08T01:50:31.425Z,97895.13
2022-11-08T01:52:57.864Z,97881.66
2022-11-08T01:55:24.283Z,97886.44
2022-11-08T01:57:57.460Z,97881.03
2022-11-08T02:00:24.069Z,97888.19
2022-11-08T02:02:54.600Z,97882.22
2022-11-08T02:05:25.254Z,97891.31
2022-11-08T02:07:57.839Z,97883.19
2022-11-08T02:10:26.429Z,97874.44
2022-11-08T02:12:53.769Z,97877.88
2022-11-08T02:15:21.685Z,97874.41
2022-11-08T02:17:48.197Z,97861.66
2022-11-08T02:20:14.713Z,97869.03
2022-11-08T02:23:00.337Z,97847.03
2022-11-08T02:25:26.997Z,97851.44
2022-11-08T02:27:53.453Z,97856.34
2022-11-08T02:30:19.981Z,97859.13
2022-11-08T02:32:47.199Z,97851.44
2022-11-08T02:35:16.621Z,97851.97
2022-11-08T02:37:43.752Z,97849.09
2022-11-08T02:40:10.362Z,97856.16
2022-11-08T02:42:39.903Z,97845.25
2022-11-08T02:45:06.994Z,97848.69
2022-11-08T02:47:33.471Z,97841.22
2022-11-08T02:49:59.941Z,97836.44
2022-11-08T02:52:26.398Z,97847.63
2022-11-08T02:54:52.833Z,97846.13
2022-11-08T02:57:19.253Z,97841.06
2022-11-08T02:59:45.677Z,97845.38
2022-11-08T03:02:12.272Z,97849.25
2022-11-08T03:04:38.884Z,97848.06
2022-11-08T03:07:05.336Z,97847.78
2022-11-08T03:09:31.804Z,97847.78
2022-11-08T03:11:58.654Z,97839.91
2022-11-08T03:14:25.070Z,97843.44
2022-11-08T03:16:51.502Z,97840.63
2022-11-08T03:19:17.949Z,97847.63
2022-11-08T03:21:44.451Z,97842.50
2022-11-08T03:24:10.964Z,97844.66
2022-11-08T03:26:37.383Z,97839.63
2022-11-08T03:29:03.829Z,97838.06
2022-11-08T03:31:30.305Z,97833.38
2022-11-08T03:33:56.726Z,97839.13
2022-11-08T03:36:23.291Z,97847.00
2022-11-08T03:38:50.772Z,97849.34
2022-11-08T03:41:17.193Z,97842.66
2022-11-08T03:43:43.652Z,97844.00
2022-11-08T03:46:10.064Z,97841.25
2022-11-08T03:48:36.554Z,97840.19
2022-11-08T03:51:03.029Z,97834.00
2022-11-08T03:53:29.453Z,97839.44
2022-11-08T03:55:58.482Z,97835.50
2022-11-08T03:58:24.953Z,97838.69
2022-11-08T04:00:51.536Z,97841.88
2022-11-08T04:03:18.006Z,97847.00
2022-11-08T04:05:44.501Z,97839.78
2022-11-08T04:08:10.964Z,97839.97
2022-11-08T04:10:37.380Z,97840.19
2022-11-08T04:13:22.557Z,97833.16
2022-11-08T04:15:53.828Z,97831.66
2022-11-08T04:18:38.828Z,97825.47
2022-11-08T04:21:21.618Z,97832.94
2022-11-08T04:23:49.462Z,97829.56
2022-11-08T04:26:15.953Z,97829.56
2022-11-08T04:28:44.433Z,97825.16
2022-11-08T04:31:12.632Z,97828.22
2022-11-08T04:33:39.301Z,97842.44
2022-11-08T04:36:13.450Z,97835.88
2022-11-08T04:38:39.981Z,97836.53
2022-11-08T04:41:08.011Z,97828.84
2022-11-08T04:43:34.549Z,97826.09
2022-11-08T04:46:02.414Z,97825.66
2022-11-08T04:48:28.973Z,97819.91
2022-11-08T04:50:55.602Z,97826.53
2022-11-08T04:53:22.153Z,97820.91
2022-11-08T04:55:48.638Z,97821.59
2022-11-08T04:58:15.424Z,97810.56
2022-11-08T05:00:42.065Z,97827.81
2022-11-08T05:03:08.550Z,97820.03
2022-11-08T05:05:35.189Z,97825.75
2022-11-08T05:08:01.620Z,97816.03
2022-11-08T05:10:28.101Z,97819.59
2022-11-08T05:12:57.782Z,97829.03
2022-11-08T05:15:24.293Z,97823.72
2022-11-08T05:17:50.761Z,97818.78
2022-11-08T05:20:35.924Z,97826.47
2022-11-08T05:23:20.792Z,97826.03
2022-11-08T05:25:47.464Z,97822.97
2022-11-08T05:28:14.111Z,97822.53
2022-11-08T05:30:40.573Z,97831.97
2022-11-08T05:33:07.020Z,97826.47
2022-11-08T05:35:34.046Z,97826.53
2022-11-08T05:38:00.580Z,97822.53
2022-11-08T05:40:32.134Z,97829.25
2022-11-08T05:42:59.697Z,97822.28
2022-11-08T05:45:26.140Z,97828.25
2022-11-08T05:47:52.584Z,97824.69
2022-11-08T05:50:19.642Z,97827.75
2022-11-08T05:52:46.420Z,97834.50
2022-11-08T05:55:12.867Z,97822.16
2022-11-08T05:57:43.487Z,97822.66
2022-11-08T06:00:11.182Z,97829.63
2022-11-08T06:02:38.100Z,97822.28
2022-11-08T06:05:05.753Z,97829.19
2022-11-08T06:07:32.323Z,97819.47
2022-11-08T06:09:58.861Z,97829.25
2022-11-08T06:12:25.312Z,97821.81
2022-11-08T06:14:51.772Z,97821.66
2022-11-08T06:17:19.004Z,97822.94
2022-11-08T06:19:45.502Z,97823.13
2022-11-08T06:22:12.030Z,97828.34
2022-11-08T06:24:38.514Z,97829.75
2022-11-08T06:27:05.414Z,97817.81
2022-11-08T06:29:32.026Z,97814.25
2022-11-08T06:31:58.833Z,97821.06
2022-11-08T06:34:25.698Z,97823.66
2022-11-08T06:36:52.771Z,97823.72
2022-11-08T06:39:19.312Z,97825.88
2022-11-08T06:41:45.813Z,97824.53
2022-11-08T06:44:12.309Z,97828.91
2022-11-08T06:46:38.771Z,97828.44
2022-11-08T06:49:05.251Z,97833.06
2022-11-08T06:51:31.668Z,97824.94
2022-11-08T06:53:58.844Z,97829.63
2022-11-08T06:56:25.294Z,97831.03
2022-11-08T06:58:52.684Z,97836.94
2022-11-08T07:01:19.221Z,97837.59
2022-11-08T07:03:45.722Z,97831.28
2022-11-08T07:06:12.405Z,97839.38
2022-11-08T07:08:38.878Z,97834.00
2022-11-08T07:11:05.428Z,97832.81
2022-11-08T07:13:32.017Z,97832.97
2022-11-08T07:15:59.580Z,97836.88
2022-11-08T07:18:26.728Z,97828.16
2022-11-08T07:20:53.419Z,97825.75
2022-11-08T07:23:20.363Z,97827.75
2022-11-08T07:25:47.465Z,97825.50
2022-11-08T07:28:18.123Z,97828.78
2022-11-08T07:30:45.473Z,97819.94
2022-11-08T07:33:12.528Z,97821.94
2022-11-08T07:35:39.049Z,97816.47
2022-11-08T07:38:06.146Z,97826.31
2022-11-08T07:40:33.957Z,97821.78
2022-11-08T07:43:15.967Z,97812.47
2022-11-08T07:45:43.542Z,97815.56
2022-11-08T07:48:12.667Z,97822.94
2022-11-08T07:50:40.557Z,97811.88
2022-11-08T07:53:07.023Z,97814.44
2022-11-08T07:55:35.636Z,97807.41
2022-11-08T07:58:02.237Z,97806.81
2022-11-08T08:00:29.625Z,97801.59
2022-11-08T08:02:59.635Z,97801.16
2022-11-08T08:05:29.307Z,97801.97
2022-11-08T08:07:59.713Z,97806.78
2022-11-08T08:10:27.947Z,97799.94
2022-11-08T08:12:55.178Z,97791.72
2022-11-08T08:15:21.869Z,97796.72
2022-11-08T08:17:48.606Z,97792.28
2022-11-08T08:20:15.127Z,97782.69
2022-11-08T08:22:45.574Z,97785.91
2022-11-08T08:25:12.684Z,97782.53
2022-11-08T08:27:39.758Z,97788.94
2022-11-08T08:30:06.942Z,97794.00
2022-11-08T08:32:33.525Z,97799.59
2022-11-08T08:34:59.980Z,97800.91
2022-11-08T08:37:26.436Z,97792.53
2022-11-08T08:39:52.900Z,97792.03
2022-11-08T08:42:19.365Z,97791.34
2022-11-08T08:44:45.851Z,97795.16
2022-11-08T08:47:12.296Z,97797.59
2022-11-08T08:49:40.262Z,97793.13
2022-11-08T08:52:07.062Z,97796.88
2022-11-08T08:54:33.518Z,97795.22
2022-11-08T08:57:00.026Z,97794.66
2022-11-08T09:02:14.391Z,97798.91
2022-11-08T09:04:40.851Z,97795.72
2022-11-08T09:07:07.413Z,97792.66
2022-11-08T09:09:37.456Z,97796.00
2022-11-08T09:12:04.105Z,97793.69
2022-11-08T09:14:30.789Z,97797.41
2022-11-08T09:16:57.807Z,97796.22
2022-11-08T09:19:24.306Z,97799.00
2022-11-08T09:21:51.029Z,97794.00
2022-11-08T09:24:17.561Z,97796.72
2022-11-08T09:26:44.323Z,97795.38
2022-11-08T09:29:10.779Z,97798.25
2022-11-08T09:31:37.218Z,97792.00
2022-11-08T09:36:35.131Z,97787.56
2022-11-08T09:39:01.605Z,97784.50
2022-11-08T09:41:28.055Z,97785.91
2022-11-08T09:44:03.598Z,97787.06
2022-11-08T09:46:33.083Z,97790.84
2022-11-08T09:49:01.251Z,97783.63
2022-11-08T09:51:29.033Z,97792.47
2022-11-08T09:53:57.350Z,97786.97
2022-11-08T09:56:27.078Z,97785.63
2022-11-08T09:58:54.900Z,97787.34
2022-11-08T10:01:26.902Z,97780.47
2022-11-08T10:03:56.506Z,97777.56
2022-11-08T10:06:46.521Z,97777.06
2022-11-08T10:09:43.487Z,97765.97
2022-11-08T10:12:17.120Z,97760.81
2022-11-08T10:14:54.361Z,97755.19
2022-11-08T10:17:40.106Z,97761.25
2022-11-08T10:20:14.991Z,97758.09
2022-11-08T10:22:50.807Z,97758.25
2022-11-08T10:25:20.717Z,97747.34
2022-11-08T10:27:47.245Z,97747.84
2022-11-08T10:30:21.005Z,97744.63
2022-11-08T10:32:50.486Z,97736.84
2022-11-08T10:35:16.988Z,97738.53
2022-11-08T10:37:44.511Z,97746.03
2022-11-08T10:40:17.366Z,97736.97
2022-11-08T10:42:56.372Z,97736.50
2022-11-08T10:45:22.838Z,97736.69
2022-11-08T10:47:50.049Z,97732.50
2022-11-08T10:50:20.958Z,97732.59
2022-11-08T10:52:53.822Z,97726.41
2022-11-08T10:55:25.119Z,97724.28
2022-11-08T10:57:51.836Z,97725.19
2022-11-08T11:00:18.557Z,97715.09
2022-11-08T11:02:46.330Z,97714.28
2022-11-08T11:05:15.874Z,97710.97
2022-11-08T11:07:47.008Z,97706.56
2022-11-08T11:10:20.890Z,97710.66
2022-11-08T11:13:09.742Z,97706.84
2022-11-08T11:15:46.321Z,97707.88
2022-11-08T11:18:28.225Z,97700.78
2022-11-08T11:21:02.811Z,97694.78
2022-11-08T11:23:36.627Z,97692.66
2022-11-08T11:26:04.444Z,97686.88
2022-11-08T11:28:31.157Z,97687.66
2022-11-08T11:31:02.444Z,97686.72
2022-11-08T11:33:29.984Z,97679.56
2022-11-08T11:36:13.853Z,97686.22
2022-11-08T11:38:53.066Z,97678.09
2022-11-08T11:41:25.005Z,97677.63
2022-11-08T11:43:54.470Z,97672.19
2022-11-08T11:46:27.934Z,97666.34
2022-11-08T11:49:01.697Z,97670.00
2022-11-08T11:51:29.647Z,97667.38
2022-11-08T11:53:56.997Z,97667.53
2022-11-08T11:56:42.306Z,97668.09
2022-11-08T11:59:23.191Z,97667.66
2022-11-08T12:01:58.317Z,97670.50
2022-11-08T12:04:54.330Z,97670.25
2022-11-08T12:07:28.495Z,97664.13
2022-11-08T12:09:57.938Z,97665.28
2022-11-08T12:12:40.231Z,97664.84
2022-11-08T12:15:25.442Z,97662.72
2022-11-08T12:18:02.694Z,97655.66
2022-11-08T12:20:38.597Z,97654.78
2022-11-08T12:23:05.092Z,97657.34
2022-11-08T12:25:37.502Z,97647.78
2022-11-08T12:28:22.746Z,97644.44
2022-11-08T12:31:01.489Z,97654.16
2022-11-08T12:33:46.871Z,97655.88
2022-11-08T12:36:22.664Z,97654.69
2022-11-08T12:38:49.108Z,97649.09
2022-11-08T12:41:33.041Z,97651.97
2022-11-08T12:44:18.296Z,97657.25
2022-11-08T12:46:47.894Z,97641.16
2022-11-08T12:49:33.101Z,97638.09
2022-11-08T12:52:16.240Z,97635.00
2022-11-08T12:54:53.537Z,97642.91
2022-11-08T12:57:27.554Z,97640.69
2022-11-08T13:00:08.889Z,97638.53
2022-11-08T13:02:38.926Z,97634.91
2022-11-08T13:05:08.460Z,97637.59
2022-11-08T13:07:38.072Z,97637.59
2022-11-08T13:10:12.405Z,97633.69
2022-11-08T13:12:45.244Z,97632.44
2022-11-08T13:15:16.250Z,97631.09
2022-11-08T13:18:02.851Z,97637.16
2022-11-08T13:20:37.500Z,97628.91
2022-11-08T13:23:06.893Z,97636.97
2022-11-08T13:25:34.575Z,97629.19
2022-11-08T13:28:01.050Z,97637.69
2022-11-08T13:30:32.079Z,97640.75
2022-11-08T13:33:18.820Z,97630.91
2022-11-08T13:35:58.627Z,97639.16
2022-11-08T13:38:38.788Z,97637.94
2022-11-08T13:41:05.409Z,97639.16
2022-11-08T13:43:32.943Z,97634.06
2022-11-08T13:46:18.149Z,97634.09
2022-11-08T13:49:03.423Z,97639.50
2022-11-08T13:51:31.070Z,97641.47
2022-11-08T13:53:59.080Z,97632.94
2022-11-08T13:56:45.577Z,97640.84
2022-11-08T13:59:30.650Z,97640.50
2022-11-08T14:01:59.514Z,97639.56
2022-11-08T14:04:33.554Z,97638.66
2022-11-08T14:07:11.610Z,97636.53
2022-11-08T14:09:51.747Z,97630.34
2022-11-08T14:12:24.636Z,97638.47
2022-11-08T14:15:07.259Z,97634.72
2022-11-08T14:17:51.831Z,97636.44
2022-11-08T14:20:27.072Z,97634.69
2022-11-08T14:22:53.660Z,97631.75
2022-11-08T14:25:26.111Z,97632.28
2022-11-08T14:27:52.586Z,97626.94
2022-11-08T14:30:20.779Z,97627.69
2022-11-08T14:32:47.559Z,97639.34
2022-11-08T14:35:20.358Z,97633.53
2022-11-08T14:37:46.841Z,97640.75
2022-11-08T14:40:31.514Z,97636.25
2022-11-08T14:42:58.006Z,97641.13
2022-11-08T14:45:28.152Z,97633.56
2022-11-08T14:47:59.194Z,97633.69
2022-11-08T14:50:30.833Z,97629.59
2022-11-08T14:53:17.474Z,97629.88
2022-11-08T14:55:44.368Z,97633.59
2022-11-08T14:58:14.421Z,97636.28
2022-11-08T15:00:45.727Z,97634.47
2022-11-08T15:03:16.003Z,97625.63
2022-11-08T15:05:47.959Z,97639.53
2022-11-08T15:08:40.705Z,97630.63
2022-11-08T15:11:08.548Z,97627.22
2022-11-08T15:13:40.213Z,97630.28
2022-11-08T15:16:07.659Z,97627.91
2022-11-08T15:18:41.227Z,97625.81
2022-11-08T15:21:22.236Z,97633.84
2022-11-08T15:23:49.758Z,97631.22
2022-11-08T15:26:27.066Z,97633.44
2022-11-08T15:28:54.592Z,97629.81
2022-11-08T15:31:21.194Z,97636.44
2022-11-08T15:33:47.707Z,97628.16
2022-11-08T15:36:14.877Z,97630.22
2022-11-08T15:38:42.481Z,97633.34
2022-11-08T15:41:27.726Z,97620.34
2022-11-08T15:44:05.496Z,97626.28
2022-11-08T15:46:36.873Z,97628.16
2022-11-08T15:49:13.861Z,97622.75
2022-11-08T15:51:40.345Z,97625.53
2022-11-08T15:54:07.004Z,97627.22
2022-11-08T15:56:33.716Z,97618.50
2022-11-08T15:59:00.227Z,97616.00
2022-11-08T16:01:26.722Z,97619.84
2022-11-08T16:03:53.277Z,97622.22
2022-11-08T16:06:19.729Z,97621.06
2022-11-08T16:08:46.178Z,97631.28
2022-11-08T16:11:20.760Z,97629.03
2022-11-08T16:13:49.033Z,97623.38
2022-11-08T16:16:17.067Z,97623.03
2022-11-08T16:18:44.010Z,97625.34
2022-11-08T16:21:11.273Z,97625.16
2022-11-08T16:23:38.004Z,97631.53
2022-11-08T16:26:05.248Z,97617.97
2022-11-08T16:28:38.454Z,97624.72
2022-11-08T16:31:06.052Z,97629.38
2022-11-08T16:33:33.599Z,97629.69
2022-11-08T16:36:01.712Z,97628.56
2022-11-08T16:38:32.550Z,97633.94
2022-11-08T16:40:58.985Z,97633.38
2022-11-08T16:43:25.440Z,97640.13
2022-11-08T16:46:05.117Z,97643.22
2022-11-08T16:48:32.994Z,97642.56
2022-11-08T16:51:00.681Z,97642.75
2022-11-08T16:53:27.694Z,97645.69
2022-11-08T16:55:54.153Z,97638.22
2022-11-08T16:58:20.824Z,97647.53
2022-11-08T17:00:47.881Z,97651.25
2022-11-08T17:03:19.373Z,97638.25
2022-11-08T17:05:45.832Z,97634.88
2022-11-08T17:08:12.378Z,97636.84
2022-11-08T17:10:38.839Z,97644.50
2022-11-08T17:13:05.343Z,97647.34
2022-11-08T17:15:32.221Z,97643.94
2022-11-08T17:17:58.909Z,97641.94
2022-11-08T17:20:25.901Z,97654.09
2022-11-08T17:22:53.335Z,97642.78
2022-11-08T17:25:21.040Z,97644.22
2022-11-08T17:27:48.965Z,97639.69
2022-11-08T17:30:15.497Z,97646.75
2022-11-08T17:32:41.999Z,97643.91
2022-11-08T17:35:09.620Z,97645.19
2022-11-08T17:37:36.112Z,97645.91
2022-11-08T17:40:03.634Z,97651.06
2022-11-08T17:42:34.228Z,97641.09
2022-11-08T17:45:03.897Z,97646.69
2022-11-08T17:47:30.367Z,97650.66
2022-11-08T17:49:56.839Z,97648.97
2022-11-08T17:52:23.336Z,97642.13
2022-11-08T17:54:52.939Z,97653.53
2022-11-08T17:57:19.714Z,97650.97
2022-11-08T17:59:48.174Z,97652.56
2022-11-08T18:02:15.109Z,97653.41
2022-11-08T18:04:41.731Z,97648.91
2022-11-08T18:07:08.348Z,97649.16
2022-11-08T18:09:34.920Z,97649.94
2022-11-08T18:12:01.428Z,97648.66
2022-11-08T18:14:28.980Z,97645.00
2022-11-08T18:16:55.812Z,97647.13
2022-11-08T18:19:22.939Z,97644.69
2022-11-08T18:21:49.499Z,97642.78
2022-11-08T18:24:16.268Z,97646.16
2022-11-08T18:26:42.937Z,97645.63
2022-11-08T18:29:09.428Z,97652.75
2022-11-08T18:31:36.777Z,97653.28
2022-11-08T18:34:03.299Z,97645.56
2022-11-08T18:36:30.985Z,97639.91
2022-11-08T18:39:01.442Z,97651.03
2022-11-08T18:41:29.282Z,97658.00
2022-11-08T18:43:56.661Z,97661.53
2022-11-08T18:46:25.960Z,97653.72
2022-11-08T18:48:52.492Z,97653.91
2022-11-08T18:51:20.340Z,97647.38
2022-11-08T18:53:46.816Z,97647.63
2022-11-08T18:56:13.468Z,97650.31
2022-11-08T18:58:40.179Z,97646.19
2022-11-08T19:01:07.076Z,97652.72
2022-11-08T19:03:33.900Z,97648.16
2022-11-08T19:06:00.385Z,97650.91
2022-11-08T19:08:28.539Z,97646.47
2022-11-08T19:10:56.188Z,97637.72
2022-11-08T19:13:23.668Z,97641.56
2022-11-08T19:16:00.445Z,97637.06
2022-11-08T19:18:27.396Z,97636.34
2022-11-08T19:20:58.205Z,97644.66
2022-11-08T19:23:25.171Z,97641.47
2022-11-08T19:25:56.151Z,97645.94
2022-11-08T19:28:23.288Z,97646.34
2022-11-08T19:30:53.437Z,97647.56
2022-11-08T19:33:22.214Z,97648.28
2022-11-08T19:35:48.706Z,97650.94
2022-11-08T19:38:15.153Z,97655.94
2022-11-08T19:40:41.739Z,97654.94
2022-11-08T19:43:08.349Z,97649.50
2022-11-08T19:45:34.817Z,97651.63
2022-11-08T19:48:01.389Z,97649.69
2022-11-08T19:50:27.909Z,97660.28
2022-11-08T19:52:54.401Z,97650.78
2022-11-08T19:55:20.899Z,97657.38
2022-11-08T19:57:47.491Z,97654.53
2022-11-08T20:00:15.439Z,97648.72
2022-11-08T20:02:42.277Z,97653.31
2022-11-08T20:05:09.565Z,97656.50
2022-11-08T20:07:36.038Z,97649.75
2022-11-08T20:10:02.542Z,97647.72
2022-11-08T20:12:31.324Z,97645.53
2022-11-08T20:14:58.467Z,97653.06
2022-11-08T20:17:24.937Z,97640.25
2022-11-08T20:19:51.822Z,97644.66
2022-11-08T20:22:18.504Z,97650.53
2022-11-08T20:24:45.424Z,97650.59
2022-11-08T20:27:11.983Z,97652.81
2022-11-08T20:29:38.489Z,97655.72
2022-11-08T20:32:05.130Z,97652.03
2022-11-08T20:34:31.592Z,97656.28
2022-11-08T20:36:58.032Z,97656.00
2022-11-08T20:39:24.458Z,97653.38
2022-11-08T20:41:50.900Z,97663.00
2022-11-08T20:44:17.413Z,97652.53
2022-11-08T20:46:43.974Z,97658.16
2022-11-08T20:49:10.631Z,97659.59
2022-11-08T20:51:37.447Z,97657.72
2022-11-08T20:54:03.894Z,97661.06
2022-11-08T20:56:30.413Z,97656.97
2022-11-08T20:58:57.048Z,97657.09
2022-11-08T21:01:24.897Z,97656.56
2022-11-08T21:03:52.500Z,97659.44
2022-11-08T21:06:20.375Z,97656.78
2022-11-08T21:09:16.655Z,97641.44
2022-11-08T21:11:35.431Z,97645.59
2022-11-08T21:14:02.396Z,97643.94
2022-11-08T21:16:31.024Z,97656.59
2022-11-08T21:19:01.958Z,97651.47
2022-11-08T21:21:28.728Z,97660.50
2022-11-08T21:23:55.299Z,97656.84
2022-11-08T21:26:22.272Z,97648.41
2022-11-08T21:28:48.814Z,97651.47
2022-11-08T21:31:15.686Z,97654.75
2022-11-08T21:33:42.186Z,97651.84
2022-11-08T21:36:09.167Z,97657.69
2022-11-08T21:38:36.910Z,97658.53
2022-11-08T21:41:05.469Z,97657.31
2022-11-08T21:43:42.888Z,97658.78
2022-11-08T21:46:20.135Z,97663.56
2022-11-08T21:48:47.241Z,97654.44
2022-11-08T21:51:13.873Z,97657.09
2022-11-08T21:53:49.372Z,97646.75
2022-11-08T21:56:19.528Z,97653.44
2022-11-08T21:58:45.994Z,97657.81
2022-11-08T22:01:12.616Z,97649.31
2022-11-08T22:03:39.228Z,97647.81
2022-11-08T22:06:05.795Z,97646.50
2022-11-08T22:08:32.235Z,97644.56
2022-11-08T22:10:58.690Z,97648.31
2022-11-08T22:13:25.349Z,97641.09
2022-11-08T22:15:51.805Z,97643.03
2022-11-08T22:18:36.954Z,97644.19
2022-11-08T22:21:23.448Z,97642.34
2022-11-08T22:23:49.924Z,97647.28
2022-11-08T22:26:16.623Z,97642.53
2022-11-08T22:28:43.153Z,97638.03
2022-11-08T22:31:09.660Z,97637.97
2022-11-08T22:33:36.137Z,97636.84
2022-11-08T22:36:02.617Z,97633.13
2022-11-08T22:38:29.178Z,97632.47
2022-11-08T22:40:55.669Z,97630.16
2022-11-08T22:43:22.135Z,97639.53
2022-11-08T22:45:48.635Z,97641.25
2022-11-08T22:48:15.186Z,97642.34
2022-11-08T22:50:41.741Z,97645.88
2022-11-08T22:53:08.263Z,97643.72
2022-11-08T22:55:34.989Z,97640.97
2022-11-08T22:58:01.484Z,97638.41
2022-11-08T23:00:28.815Z,97632.50
2022-11-08T23:02:55.302Z,97632.53
2022-11-08T23:05:21.750Z,97631.72
2022-11-08T23:07:48.280Z,97632.81
2022-11-08T23:10:14.767Z,97630.25
2022-11-08T23:12:59.928Z,97626.47
2022-11-08T23:15:45.127Z,97625.00
2022-11-08T23:18:11.605Z,97631.69
2022-11-08T23:20:56.757Z,97627.69
2022-11-08T23:24:01.238Z,97630.41
2022-11-08T23:26:46.391Z,97618.50
2022-11-08T23:29:51.215Z,97628.56
2022-11-08T23:32:17.719Z,97622.50
2022-11-08T23:34:44.173Z,97620.69
2022-11-08T23:37:10.666Z,97623.69
2022-11-08T23:39:57.233Z,97613.88
2022-11-08T23:42:42.467Z,97611.91
2022-11-08T23:45:09.253Z,97618.00
2022-11-08T23:47:35.906Z,97617.28
2022-11-08T23:50:02.580Z,97612.69
2022-11-08T23:52:29.050Z,97609.25
2022-11-08T23:54:55.493Z,97610.25
2022-11-08T23:57:21.926Z,97610.25
2022-11-08T23:59:48.454Z,97606.34
